New Columbia, Illinois
Current Conditions -  °F | °C
As of 8:15 PM on Sunday 25 Jan 2015 (Local Time) from KM30 Reporting Station
Haze Haze  
Wind Chill: 34°   Ceiling: 900
Heat Index: 42°   Visibility: 4mi
Dew Point: 42°   Wind: 15mph
Humidity: 100%   Direction: 310°NW
Pressure: 29.77"   Gusts: 23mph
Location:  37.3798°N, 88.7652°W
Report Text: KM30 260215Z AUTO 31013G20KT 4SM BR BKN009 OVC014 06/06 A2977 RMK AO2 T00550055
Loading
Personal Weather Stations






























Interactive Weather Map New forecast layout! Learn more

10-Day Weather Forecast

Advertisements
Track Severe Weather on mobile